Time;durP1;ratioP1;P1;durP2;ratioP2;P2;SDS_P1;SDS_P2;PMS_P1;PMS_P2;Temp;Humidity;BMP_temperature;BMP_pressure;BME280_temperature;BME280_humidity;BME280_pressure;Samples;Min_cycle;Max_cycle;Signal;HPM_P1;HPM_P2
2022/05/16 00:02:59;;;;;;;1.50;0.97;;;14.70;92.30;;;;;;12671309;23;20193;-87
2022/05/16 00:08:01;;;;;;;2.07;1.23;;;14.80;92.30;;;;;;12687051;23;20165;-87
2022/05/16 00:13:04;;;;;;;2.67;1.63;;;14.60;91.60;;;;;;12671886;23;20173;-87
2022/05/16 00:18:07;;;;;;;2.23;1.10;;;13.60;92.60;;;;;;12669171;23;20575;-87
2022/05/16 00:23:09;;;;;;;2.23;1.40;;;14.20;94.20;;;;;;12671801;23;20189;-87
2022/05/16 00:28:12;;;;;;;4.00;1.60;;;14.70;92.60;;;;;;12671616;23;20225;-87
2022/05/16 00:33:14;;;;;;;4.57;2.13;;;14.20;91.80;;;;;;12671243;23;20169;-87
2022/05/16 00:38:17;;;;;;;4.30;1.90;;;13.90;94.50;;;;;;12670548;23;20173;-87
2022/05/16 00:43:58;;;;;;;1.60;1.17;;;13.70;94.20;;;;;;12726163;23;20200;-87
2022/05/16 00:49:03;;;;;;;1.40;1.07;;;14.50;91.00;;;;;;12748343;23;20165;-87
2022/05/16 00:54:12;;;;;;;2.13;1.20;;;14.60;92.60;;;;;;12731380;23;20854;-87
2022/05/16 00:59:14;;;;;;;1.70;1.27;;;14.90;91.70;;;;;;12732679;23;20547;-86
2022/05/16 01:09:38;;;;;;;1.63;1.37;;;15.00;91.20;;;;;;12704397;23;20557;-84
2022/05/16 01:14:49;;;;;;;4.53;2.50;;;14.50;92.50;;;;;;12731152;23;20570;-84
2022/05/16 01:19:53;;;;;;;4.37;1.90;;;14.40;90.40;;;;;;12703322;23;20251;-84
2022/05/16 01:24:59;;;;;;;2.53;1.33;;;14.40;92.00;;;;;;12731004;23;20192;-84
2022/05/16 01:30:02;;;;;;;2.63;1.50;;;14.80;91.90;;;;;;12679746;23;20180;-84
2022/05/16 01:35:05;;;;;;;2.00;1.37;;;14.80;91.30;;;;;;12731225;23;20172;-84
2022/05/16 01:40:09;;;;;;;2.40;1.40;;;14.80;91.70;;;;;;12744777;23;20200;-85
2022/05/16 01:45:11;;;;;;;1.87;1.30;;;15.00;91.00;;;;;;12747560;23;20251;-84
2022/05/16 01:50:14;;;;;;;1.97;1.20;;;15.00;91.00;;;;;;12705093;23;20168;-87
2022/05/16 01:55:17;;;;;;;3.37;2.10;;;14.60;91.10;;;;;;12747303;23;20176;-84
2022/05/16 02:00:21;;;;;;;2.77;1.10;;;14.70;90.10;;;;;;12705758;23;20172;-84
2022/05/16 02:05:24;;;;;;;4.83;1.13;;;14.90;91.40;;;;;;12680430;23;20247;-85
2022/05/16 02:10:28;;;;;;;2.60;1.27;;;15.00;90.80;;;;;;12730772;23;20227;-85
2022/05/16 02:15:33;;;;;;;1.70;1.20;;;14.40;91.70;;;;;;12731395;23;20172;-85
2022/05/16 02:20:37;;;;;;;3.97;1.40;;;14.60;92.00;;;;;;12704477;23;20177;-85
2022/05/16 02:25:43;;;;;;;4.20;1.47;;;14.70;91.60;;;;;;12730923;23;20192;-84
2022/05/16 02:30:46;;;;;;;2.03;1.60;;;14.40;92.20;;;;;;12705291;23;20172;-84
2022/05/16 02:35:50;;;;;;;3.60;1.73;;;14.50;91.90;;;;;;12705261;23;20173;-85
2022/05/16 02:40:52;;;;;;;2.57;1.57;;;14.40;92.00;;;;;;12703348;23;20212;-85
2022/05/16 02:45:54;;;;;;;4.57;2.07;;;14.60;91.50;;;;;;12678959;23;20591;-84
2022/05/16 02:50:57;;;;;;;3.13;1.73;;;14.60;91.40;;;;;;12703106;23;20227;-85
2022/05/16 02:56:00;;;;;;;2.50;1.73;;;14.60;91.40;;;;;;12708082;23;20226;-84
2022/05/16 03:01:02;;;;;;;4.53;1.97;;;14.40;91.10;;;;;;12733936;23;20173;-84
2022/05/16 03:06:07;;;;;;;2.60;1.53;;;14.10;91.50;;;;;;12733390;23;20196;-84
2022/05/16 03:11:09;;;;;;;3.33;1.60;;;13.80;93.40;;;;;;12733319;23;20223;-84
2022/05/16 03:16:12;;;;;;;3.00;2.10;;;14.20;92.90;;;;;;12733849;23;20196;-84
2022/05/16 03:21:15;;;;;;;2.37;1.40;;;14.30;92.10;;;;;;12725073;23;20196;-84
2022/05/16 03:26:17;;;;;;;1.67;1.03;;;14.20;92.30;;;;;;12707482;23;20192;-85
2022/05/16 03:31:20;;;;;;;10.33;3.63;;;14.20;92.70;;;;;;12732926;23;20698;-84
2022/05/16 03:36:22;;;;;;;1.90;1.43;;;14.00;92.50;;;;;;12705995;23;20181;-84
2022/05/16 03:41:25;;;;;;;1.97;1.50;;;14.20;92.50;;;;;;12716806;23;20204;-85
2022/05/16 03:46:28;;;;;;;6.53;2.67;;;14.30;92.10;;;;;;12706134;23;20200;-85
2022/05/16 03:51:31;;;;;;;4.77;1.80;;;14.20;92.50;;;;;;12732615;23;20200;-84
2022/05/16 03:56:33;;;;;;;10.07;2.47;;;14.10;92.50;;;;;;12706250;23;20718;-84
2022/05/16 04:01:36;;;;;;;9.03;2.47;;;14.10;92.60;;;;;;12706333;23;20231;-84
2022/05/16 04:06:45;;;;;;;4.47;2.07;;;14.00;92.70;;;;;;12748694;23;20251;-84
2022/05/16 04:11:47;;;;;;;7.80;2.50;;;14.10;92.60;;;;;;12703304;23;20176;-84
2022/05/16 04:16:50;;;;;;;5.37;3.13;;;14.40;92.30;;;;;;12706938;23;20578;-84
2022/05/16 04:21:52;;;;;;;7.03;2.87;;;13.90;92.40;;;;;;12706218;23;20169;-84
2022/05/16 04:26:55;;;;;;;5.23;2.27;;;13.70;94.30;;;;;;12705112;23;20200;-84
2022/05/16 04:31:57;;;;;;;7.50;2.40;;;14.60;91.70;;;;;;12705947;23;20223;-84
2022/05/16 04:37:00;;;;;;;5.83;3.00;;;15.00;90.80;;;;;;12706046;23;20172;-84
2022/05/16 04:47:26;;;;;;;8.40;3.20;;;15.00;91.00;;;;;;12750021;23;20263;-84
2022/05/16 04:52:28;;;;;;;7.43;2.60;;;14.20;91.00;;;;;;12680923;23;20234;-84
2022/05/16 04:57:31;;;;;;;9.33;3.77;;;14.30;92.60;;;;;;12741352;23;20239;-84
2022/05/16 05:02:33;;;;;;;7.77;3.37;;;14.50;91.90;;;;;;12703539;23;20238;-84
2022/05/16 05:07:37;;;;;;;4.13;1.97;;;15.00;90.90;;;;;;12703651;23;20204;-83
2022/05/16 05:18:01;;;;;;;7.13;4.00;;;14.50;92.60;;;;;;12749332;23;20272;-84
2022/05/16 05:23:05;;;;;;;8.87;4.63;;;14.70;91.30;;;;;;12704142;23;20180;-84
2022/05/16 05:28:07;;;;;;;4.80;2.00;;;14.90;91.30;;;;;;12730940;23;20188;-84
2022/05/16 05:33:10;;;;;;;7.50;4.03;;;15.40;90.80;;;;;;12704675;23;20168;-84
2022/05/16 05:38:12;;;;;;;25.97;4.60;;;15.10;91.50;;;;;;12731208;23;20215;-83
2022/05/16 05:43:14;;;;;;;3.87;2.13;;;15.00;91.90;;;;;;12730249;23;20759;-83
2022/05/16 05:48:17;;;;;;;4.30;2.80;;;15.30;91.20;;;;;;12730818;23;20196;-83
2022/05/16 05:53:19;;;;;;;10.43;4.43;;;16.00;89.30;;;;;;12704902;23;20168;-82
2022/05/16 05:58:22;;;;;;;6.47;1.70;;;15.70;90.30;;;;;;12704451;23;20176;-83
2022/05/16 06:03:25;;;;;;;15.63;5.83;;;15.80;89.50;;;;;;12704323;23;20180;-83
2022/05/16 06:08:27;;;;;;;3.03;2.25;;;16.00;90.30;;;;;;12731344;23;20267;-83
2022/05/16 06:13:30;;;;;;;1.17;1.07;;;16.40;87.50;;;;;;12703775;23;20302;-83
2022/05/16 06:18:33;;;;;;;11.17;3.97;;;16.60;85.90;;;;;;12730595;23;20227;-82
2022/05/16 06:23:35;;;;;;;14.07;4.90;;;16.80;87.40;;;;;;12703842;23;20494;-82
2022/05/16 06:28:39;;;;;;;8.97;2.47;;;17.00;85.10;;;;;;12733095;23;20172;-83
2022/05/16 06:33:46;;;;;;;11.55;3.50;;;17.60;83.10;;;;;;12706843;23;20243;-82
2022/05/16 06:38:49;;;;;;;8.63;3.88;;;17.70;83.80;;;;;;12709197;23;20238;-75
2022/05/16 06:43:51;;;;;;;11.73;3.65;;;18.00;82.90;;;;;;12792225;23;20238;-74
2022/05/16 06:48:54;;;;;;;6.28;2.83;;;17.70;85.10;;;;;;12818142;23;20171;-75
2022/05/16 06:53:57;;;;;;;11.93;3.40;;;17.70;83.30;;;;;;12791331;23;20234;-75
2022/05/16 06:58:59;;;;;;;7.03;2.20;;;17.80;82.80;;;;;;12792288;23;20226;-75
2022/05/16 07:04:03;;;;;;;4.65;2.42;;;17.80;83.40;;;;;;12792653;23;20254;-75
2022/05/16 07:09:05;;;;;;;6.40;2.50;;;17.90;82.60;;;;;;12791656;23;20713;-75
2022/05/16 07:14:08;;;;;;;14.02;3.72;;;18.00;81.30;;;;;;12791513;23;20218;-75
2022/05/16 07:19:10;;;;;;;4.93;2.90;;;17.80;81.20;;;;;;12767810;23;20242;-75
2022/05/16 07:24:12;;;;;;;10.75;3.22;;;18.30;79.90;;;;;;12793954;23;20183;-75
2022/05/16 07:29:15;;;;;;;8.88;3.70;;;18.30;78.70;;;;;;12816983;23;20519;-75
2022/05/16 07:34:17;;;;;;;3.78;2.25;;;18.50;77.90;;;;;;12816620;23;20514;-74
2022/05/16 07:39:20;;;;;;;5.78;2.90;;;18.70;78.60;;;;;;12791571;23;20594;-75
2022/05/16 07:44:22;;;;;;;5.43;2.03;;;18.20;74.70;;;;;;12791092;23;20188;-77
2022/05/16 07:49:25;;;;;;;6.13;2.45;;;18.70;77.70;;;;;;12793447;23;20164;-78
2022/05/16 07:54:27;;;;;;;3.53;1.95;;;19.10;76.40;;;;;;12792795;23;20199;-78
2022/05/16 07:59:30;;;;;;;4.20;2.60;;;19.10;76.30;;;;;;12790699;23;20219;-78
2022/05/16 08:04:32;;;;;;;4.57;2.30;;;18.70;77.20;;;;;;12765080;23;20534;-79
2022/05/16 08:14:56;;;;;;;4.63;2.42;;;19.40;74.60;;;;;;12794439;23;20234;-79
2022/05/16 08:19:59;;;;;;;7.00;2.40;;;19.50;74.30;;;;;;12810939;23;20172;-78
2022/05/16 08:25:02;;;;;;;1.73;1.63;;;19.10;71.10;;;;;;12793015;23;20728;-78
2022/05/16 08:30:09;;;;;;;8.38;2.83;;;19.30;74.60;;;;;;12793936;23;20164;-78
2022/05/16 08:35:16;;;;;;;5.37;2.30;;;19.00;70.40;;;;;;12766390;23;20184;-80
2022/05/16 08:40:21;;;;;;;7.80;2.27;;;19.40;74.60;;;;;;12792753;23;20204;-79
2022/05/16 08:45:38;;;;;;;5.10;1.83;;;19.30;70.90;;;;;;12792440;23;20203;-80
2022/05/16 08:50:47;;;;;;;28.60;3.90;;;19.70;71.90;;;;;;12791817;23;20164;-79
2022/05/16 08:55:52;;;;;;;30.40;3.30;;;;;;;;;;12789547;23;20183;-79
2022/05/16 09:01:10;;;;;;;15.30;2.60;;;20.10;69.30;;;;;;12809198;23;20176;-79
2022/05/16 09:06:19;;;;;;;12.63;2.88;;;20.60;68.20;;;;;;12765417;23;20226;-79
2022/05/16 09:11:46;;;;;;;6.47;1.77;;;20.70;64.90;;;;;;12789012;23;20179;-79
2022/05/16 09:16:57;;;;;;;12.73;2.85;;;20.50;66.30;;;;;;12790487;23;20175;-79
2022/05/16 09:22:21;;;;;;;15.13;3.03;;;20.80;68.50;;;;;;12809276;23;20167;-79
2022/05/16 09:33:02;;;;;;;3.95;1.45;;;21.10;67.50;;;;;;12792547;23;20234;-77
2022/05/16 09:38:05;;;;;;;10.25;2.10;;;20.30;60.40;;;;;;12809676;23;20246;-76
2022/05/16 09:43:16;;;;;;;5.35;2.05;;;20.50;68.00;;;;;;12791541;23;20199;-76
2022/05/16 09:48:21;;;;;;;9.95;2.15;;;21.00;66.10;;;;;;12809820;23;20218;-76
2022/05/16 09:53:41;;;;;;;4.65;1.65;;;21.20;67.30;;;;;;12789478;23;20176;-76
2022/05/16 09:59:05;;;;;;;2.67;1.88;;;21.40;66.90;;;;;;12791767;23;20273;-76
2022/05/16 10:04:21;;;;;;;5.57;1.38;;;21.30;64.80;;;;;;12796835;23;20171;-76
2022/05/16 10:09:44;;;;;;;2.42;1.30;;;21.40;66.60;;;;;;12796141;23;20206;-76
2022/05/16 10:14:46;;;;;;;3.95;1.98;;;21.40;59.50;;;;;;12795694;23;20583;-76
2022/05/16 10:19:57;;;;;;;3.20;1.50;;;21.50;63.30;;;;;;12797615;23;20543;-76
2022/05/16 10:25:01;;;;;;;2.95;1.80;;;21.60;65.60;;;;;;12797946;23;20233;-76
2022/05/16 10:30:11;;;;;;;4.35;1.67;;;21.70;65.60;;;;;;12794915;23;20238;-76
2022/05/16 10:35:19;;;;;;;3.90;2.13;;;21.70;65.10;;;;;;12815034;23;20214;-76
2022/05/16 10:40:31;;;;;;;8.25;1.95;;;21.70;64.90;;;;;;12770444;23;20207;-77
2022/05/16 10:45:36;;;;;;;2.97;1.40;;;21.70;65.70;;;;;;12813800;23;20195;-77
2022/05/16 10:50:50;;;;;;;2.47;1.25;;;21.70;57.30;;;;;;12798477;23;20167;-77
2022/05/16 10:56:02;;;;;;;2.58;1.48;;;21.60;59.00;;;;;;12794953;23;20570;-76
2022/05/16 11:01:11;;;;;;;2.90;1.55;;;21.40;60.60;;;;;;12814730;23;20238;-76
2022/05/16 11:06:28;;;;;;;2.00;1.10;;;21.50;65.60;;;;;;12795147;23;20254;-77
2022/05/16 11:11:41;;;;;;;8.85;1.73;;;21.50;65.60;;;;;;12796054;23;20172;-76
2022/05/16 11:16:44;;;;;;;2.63;1.25;;;21.50;54.00;;;;;;12812097;23;20172;-77
2022/05/16 11:22:05;;;;;;;8.30;1.50;;;21.30;60.50;;;;;;12794408;23;20258;-77
2022/05/16 11:27:17;;;;;;;2.40;1.38;;;21.30;60.80;;;;;;12791529;23;20277;-77
2022/05/16 11:32:28;;;;;;;2.17;1.40;;;21.40;63.40;;;;;;12835782;23;20191;-77
2022/05/16 11:37:47;;;;;;;5.78;1.42;;;20.80;54.20;;;;;;12810986;23;20172;-76
2022/05/16 11:43:01;;;;;;;5.82;1.45;;;21.20;55.80;;;;;;12791554;23;20538;-77
2022/05/16 11:48:32;;;;;;;2.28;1.20;;;21.00;54.70;;;;;;12793374;23;20586;-77
2022/05/16 11:54:01;;;;;;;3.63;1.52;;;21.40;64.50;;;;;;12791272;23;20176;-76
2022/05/16 12:05:01;;;;;;;2.13;1.38;;;21.90;63.30;;;;;;12794623;23;20218;-77
2022/05/16 12:10:10;;;;;;;2.88;1.20;;;22.00;60.20;;;;;;12794059;23;20683;-77
2022/05/16 12:15:18;;;;;;;6.70;1.83;;;22.10;59.70;;;;;;12792214;23;20179;-78
2022/05/16 12:20:38;;;;;;;2.47;1.48;;;22.10;55.70;;;;;;12794356;23;20218;-77
2022/05/16 12:25:42;;;;;;;2.75;1.35;;;22.10;61.90;;;;;;12811823;23;20591;-77
2022/05/16 12:30:54;;;;;;;4.03;1.40;;;22.00;61.70;;;;;;12812106;23;20168;-77
2022/05/16 12:35:57;;;;;;;7.30;1.55;;;22.00;55.60;;;;;;12811427;23;20172;-77
2022/05/16 12:41:05;;;;;;;4.50;1.33;;;22.10;56.70;;;;;;12793427;23;20196;-77
2022/05/16 12:46:56;;;;;;;3.22;1.40;;;21.80;58.70;;;;;;12790037;23;20254;-79
2022/05/16 12:52:33;;;;;;;6.30;1.73;;;21.90;59.00;;;;;;12544076;23;20178;-80
2022/05/16 12:57:59;;;;;;;8.38;1.52;;;22.00;55.50;;;;;;12368206;24;20235;-80
2022/05/16 13:03:22;;;;;;;1.45;1.27;;;22.00;58.90;;;;;;12370573;24;20398;-80
2022/05/16 13:08:47;;;;;;;6.10;1.42;;;21.70;58.10;;;;;;12374478;24;20265;-80
2022/05/16 13:14:11;;;;;;;7.70;1.33;;;21.40;53.70;;;;;;12344403;24;20593;-80
2022/05/16 13:19:17;;;;;;;1.90;1.15;;;21.60;53.50;;;;;;12367720;24;20228;-80
2022/05/16 13:24:23;;;;;;;2.45;1.20;;;21.70;57.90;;;;;;12375363;24;20573;-80
2022/05/16 13:29:34;;;;;;;3.45;1.38;;;22.00;54.30;;;;;;12575658;23;20251;-80
2022/05/16 13:34:46;;;;;;;4.63;1.48;;;22.10;59.10;;;;;;12810461;23;20168;-80
2022/05/16 13:39:54;;;;;;;4.03;1.40;;;22.00;58.20;;;;;;12806622;23;20265;-79
2022/05/16 13:44:58;;;;;;;3.72;1.13;;;22.10;59.40;;;;;;12794145;23;20569;-80
2022/05/16 13:50:01;;;;;;;4.50;1.40;;;22.10;51.20;;;;;;12809276;23;20187;-80
2022/05/16 13:55:09;;;;;;;2.28;0.95;;;22.00;49.70;;;;;;12791383;23;20168;-80
2022/05/16 14:00:29;;;;;;;3.30;1.48;;;22.10;59.20;;;;;;12791662;23;20167;-80
2022/05/16 14:05:34;;;;;;;0.95;0.68;;;22.00;58.80;;;;;;12789329;23;20234;-80
2022/05/16 14:10:38;;;;;;;4.32;1.50;;;21.80;58.60;;;;;;12789200;23;20238;-80
2022/05/16 14:15:53;;;;;;;1.67;1.27;;;22.10;55.90;;;;;;12788920;23;20192;-80
2022/05/16 14:21:22;;;;;;;2.40;1.40;;;22.20;58.70;;;;;;12789464;23;20183;-80
2022/05/16 14:26:38;;;;;;;4.35;1.30;;;21.50;59.20;;;;;;12808351;23;20187;-80
2022/05/16 14:31:44;;;;;;;2.28;1.30;;;21.60;56.60;;;;;;12789205;23;20720;-80
2022/05/16 14:36:48;;;;;;;5.07;1.10;;;21.70;60.60;;;;;;12808161;23;20258;-80
2022/05/16 14:42:07;;;;;;;6.35;1.67;;;21.70;54.40;;;;;;12789463;23;20195;-80
2022/05/16 14:47:32;;;;;;;6.72;1.55;;;22.00;58.90;;;;;;12809450;23;20537;-78
2022/05/16 14:52:37;;;;;;;3.47;1.40;;;22.40;57.00;;;;;;12794763;23;20175;-78
2022/05/16 14:57:42;;;;;;;5.32;1.02;;;22.50;50.70;;;;;;12792893;23;20175;-75
2022/05/16 15:08:07;;;;;;;2.50;1.25;;;22.70;52.20;;;;;;12793059;23;20261;-76
2022/05/16 15:13:10;;;;;;;9.05;1.65;;;;;;;;;;12795342;23;20522;-75
2022/05/16 15:18:13;;;;;;;16.45;1.38;;;23.20;60.80;;;;;;12812280;23;20230;-76
2022/05/16 15:23:21;;;;;;;2.05;1.17;;;23.20;61.40;;;;;;12795219;23;20168;-75
2022/05/16 15:28:23;;;;;;;5.47;1.40;;;23.00;50.80;;;;;;12794267;23;20263;-75
2022/05/16 15:33:26;;;;;;;1.30;0.85;;;22.60;53.40;;;;;;12793273;23;20168;-76
2022/05/16 15:38:28;;;;;;;2.25;1.00;;;22.50;61.70;;;;;;12793971;23;20171;-75
2022/05/16 15:43:31;;;;;;;2.65;1.30;;;23.10;56.90;;;;;;12789986;23;20753;-75
2022/05/16 15:48:37;;;;;;;3.60;1.48;;;23.10;62.00;;;;;;12792176;23;20584;-76
2022/05/16 15:53:41;;;;;;;15.65;1.98;;;22.70;52.70;;;;;;12794020;23;20163;-79
2022/05/16 15:58:45;;;;;;;12.15;2.33;;;22.40;60.00;;;;;;12789997;23;20242;-78
2022/05/16 16:09:10;;;;;;;3.22;1.17;;;23.20;57.40;;;;;;12812772;23;20195;-79
2022/05/16 16:14:19;;;;;;;7.28;1.30;;;23.20;55.10;;;;;;12792450;23;20180;-79
2022/05/16 16:19:24;;;;;;;3.13;1.00;;;23.50;57.90;;;;;;12810145;23;20485;-79
2022/05/16 16:24:27;;;;;;;7.38;1.10;;;23.30;58.30;;;;;;12791091;23;20242;-79
2022/05/16 16:29:31;;;;;;;3.80;1.50;;;23.40;58.50;;;;;;12791399;23;20985;-78
2022/05/16 16:34:34;;;;;;;6.38;1.38;;;23.40;58.70;;;;;;12792489;23;20242;-78
2022/05/16 16:39:37;;;;;;;4.13;0.90;;;23.20;56.20;;;;;;12792115;23;20262;-78
2022/05/16 16:44:39;;;;;;;2.53;1.50;;;23.20;59.40;;;;;;12793021;23;20171;-79
2022/05/16 16:49:41;;;;;;;7.47;1.30;;;23.20;55.70;;;;;;12793307;23;20187;-78
2022/05/16 17:00:09;;;;;;;1.52;1.00;;;23.10;60.30;;;;;;12795154;23;20199;-78
2022/05/16 17:05:15;;;;;;;4.05;1.60;;;23.00;59.00;;;;;;12766013;23;20242;-78
2022/05/16 17:10:28;;;;;;;3.60;1.30;;;22.90;61.10;;;;;;12810151;23;20195;-78
2022/05/16 17:15:31;;;;;;;5.82;1.10;;;23.00;61.00;;;;;;12791923;23;20213;-78
2022/05/16 17:20:34;;;;;;;2.10;1.20;;;22.90;56.30;;;;;;12790306;23;20210;-78
2022/05/16 17:25:36;;;;;;;8.80;2.03;;;22.70;61.00;;;;;;12810227;23;20179;-78
2022/05/16 17:30:41;;;;;;;4.18;1.30;;;22.30;60.50;;;;;;12789111;23;20200;-78
2022/05/16 17:35:43;;;;;;;1.67;0.98;;;22.10;58.80;;;;;;12791871;23;20163;-79
2022/05/16 17:40:49;;;;;;;10.35;1.38;;;22.10;62.90;;;;;;12801883;23;20199;-77
2022/05/16 17:45:51;;;;;;;6.22;1.20;;;21.90;59.80;;;;;;12790993;23;20245;-79
2022/05/16 17:50:54;;;;;;;2.33;0.95;;;21.30;59.80;;;;;;12786659;23;20191;-78
2022/05/16 17:55:56;;;;;;;5.15;1.67;;;20.50;62.30;;;;;;12812014;23;20200;-78
2022/05/16 18:01:01;;;;;;;5.32;1.73;;;19.70;63.10;;;;;;12799225;23;20172;-78
2022/05/16 18:06:03;;;;;;;4.65;1.52;;;19.00;64.90;;;;;;12786149;23;20252;-78
2022/05/16 18:16:28;;;;;;;9.73;2.38;;;18.00;67.60;;;;;;12787894;23;20179;-78
2022/05/16 18:21:31;;;;;;;8.52;2.33;;;17.50;68.40;;;;;;12790794;23;20180;-77
2022/05/16 18:26:33;;;;;;;15.02;2.30;;;17.10;69.60;;;;;;12795169;23;20168;-78
2022/05/16 18:31:36;;;;;;;9.93;2.60;;;16.80;73.30;;;;;;12794749;23;20202;-78
2022/05/16 18:36:39;;;;;;;11.98;2.60;;;16.90;74.70;;;;;;12812634;23;20168;-78
2022/05/16 18:52:32;;;;;;;20.15;2.40;;;17.70;79.00;;;;;;12793044;23;20238;-78
2022/05/16 18:57:35;;;;;;;25.55;4.70;;;17.40;77.70;;;;;;12829476;23;20195;-78
2022/05/16 19:02:58;;;;;;;13.80;2.97;;;17.30;77.00;;;;;;12809692;23;20502;-78
2022/05/16 19:08:02;;;;;;;11.98;2.78;;;17.40;80.90;;;;;;12792978;23;20242;-78
2022/05/16 19:13:05;;;;;;;31.02;3.85;;;17.80;79.60;;;;;;12827335;23;20171;-78
2022/05/16 19:18:10;;;;;;;22.40;5.40;;;17.40;77.80;;;;;;12789827;23;20230;-78
2022/05/16 19:23:13;;;;;;;32.45;5.72;;;17.20;79.80;;;;;;12808518;23;20199;-78
2022/05/16 19:33:41;;;;;;;10.45;2.10;;;16.80;84.30;;;;;;12793583;23;20183;-77
2022/05/16 19:38:43;;;;;;;27.90;4.38;;;17.40;83.90;;;;;;12794312;23;20172;-78
2022/05/16 19:43:47;;;;;;;13.68;3.92;;;17.40;82.20;;;;;;12793364;23;20215;-77
2022/05/16 19:48:49;;;;;;;11.70;1.33;;;17.30;82.40;;;;;;12818465;23;20192;-78
2022/05/16 19:53:52;;;;;;;2.08;1.35;;;17.60;83.20;;;;;;12793059;23;20190;-81
2022/05/16 19:58:54;;;;;;;27.50;5.38;;;17.90;82.40;;;;;;12794231;23;20305;-79
2022/05/16 20:03:57;;;;;;;10.10;2.00;;;16.80;82.90;;;;;;12794029;23;20631;-78
2022/05/16 20:09:06;;;;;;;24.35;4.32;;;17.30;85.00;;;;;;12790262;23;20745;-78
2022/05/16 20:14:14;;;;;;;27.73;4.28;;;16.80;84.70;;;;;;12789183;23;20242;-78
2022/05/16 20:19:18;;;;;;;16.85;4.30;;;15.40;85.50;;;;;;12808640;23;20214;-78
2022/05/16 20:29:47;;;;;;;9.07;2.38;;;16.10;90.90;;;;;;12640815;23;20197;-78
2022/05/16 20:34:50;;;;;;;3.70;1.50;;;15.50;91.50;;;;;;12640065;23;20799;-78
2022/05/16 20:39:57;;;;;;;10.63;3.67;;;15.60;92.30;;;;;;12673438;23;20248;-78
2022/05/16 20:45:04;;;;;;;4.78;2.15;;;15.90;90.80;;;;;;12664671;23;20189;-78
2022/05/16 20:50:08;;;;;;;8.48;3.38;;;15.30;90.80;;;;;;12640125;23;20201;-78
2022/05/16 20:55:15;;;;;;;4.30;2.38;;;15.70;91.10;;;;;;12681351;23;20173;-77
2022/05/16 21:00:23;;;;;;;4.30;2.40;;;15.90;92.50;;;;;;12667177;23;20256;-78
2022/05/16 21:05:25;;;;;;;10.30;2.95;;;16.00;92.30;;;;;;12735435;23;20180;-78
2022/05/16 21:10:31;;;;;;;7.70;2.30;;;16.00;90.80;;;;;;12792551;23;20199;-77
2022/05/16 21:15:33;;;;;;;9.20;2.75;;;16.30;91.40;;;;;;12789183;23;20242;-77
2022/05/16 21:20:36;;;;;;;6.43;3.80;;;16.00;90.30;;;;;;12794596;23;20238;-77
2022/05/16 21:25:39;;;;;;;2.22;1.70;;;15.20;87.80;;;;;;12792633;23;20557;-76
2022/05/16 21:30:41;;;;;;;2.83;1.15;;;16.20;93.40;;;;;;12792175;23;20242;-77
2022/05/16 21:35:44;;;;;;;6.68;2.97;;;17.10;90.90;;;;;;12808824;23;20167;-79
2022/05/16 21:40:46;;;;;;;5.15;2.70;;;17.20;79.90;;;;;;12792348;23;20195;-77
2022/05/16 21:45:49;;;;;;;9.13;2.00;;;16.00;86.80;;;;;;12788818;23;20192;-77
2022/05/16 21:50:53;;;;;;;10.00;2.75;;;16.10;91.40;;;;;;12790061;23;20199;-78
2022/05/16 21:56:00;;;;;;;6.10;2.30;;;15.70;89.30;;;;;;12790134;23;20179;-78
2022/05/16 22:01:03;;;;;;;4.40;1.85;;;16.90;86.90;;;;;;12791914;23;20522;-78
2022/05/16 22:06:06;;;;;;;6.50;2.13;;;18.30;79.10;;;;;;12793254;23;20526;-77
2022/05/16 22:11:08;;;;;;;8.95;2.45;;;17.50;78.70;;;;;;12790228;23;20259;-77
2022/05/16 22:16:11;;;;;;;12.32;3.10;;;16.40;81.80;;;;;;12807337;23;20211;-77
2022/05/16 22:21:13;;;;;;;4.15;2.50;;;15.40;86.40;;;;;;12792137;23;20702;-78
2022/05/16 22:26:15;;;;;;;9.73;2.63;;;14.70;90.00;;;;;;12809978;23;20170;-78
2022/05/16 22:31:18;;;;;;;9.00;2.67;;;14.70;92.30;;;;;;12809219;23;20191;-79
2022/05/16 22:36:21;;;;;;;8.05;2.97;;;15.10;91.40;;;;;;12813596;23;20168;-79
2022/05/16 22:41:24;;;;;;;4.28;1.90;;;15.50;90.90;;;;;;12788747;23;20207;-78
2022/05/16 22:46:27;;;;;;;12.57;2.83;;;15.50;90.80;;;;;;12791666;23;20506;-78
2022/05/16 22:51:30;;;;;;;6.35;2.67;;;15.70;87.20;;;;;;12791483;23;20235;-77
2022/05/16 22:56:33;;;;;;;6.60;3.08;;;14.90;90.70;;;;;;12791497;23;20172;-78
2022/05/16 23:06:59;;;;;;;5.25;2.60;;;14.90;90.20;;;;;;12808730;23;20172;-78
2022/05/16 23:12:01;;;;;;;4.68;2.40;;;14.10;91.00;;;;;;12792124;23;20195;-78
2022/05/16 23:17:04;;;;;;;5.13;2.42;;;14.50;92.40;;;;;;12794030;23;20195;-78
2022/05/16 23:22:07;;;;;;;4.57;3.15;;;14.50;93.50;;;;;;12792196;23;20246;-78
2022/05/16 23:27:10;;;;;;;7.15;2.85;;;14.90;91.30;;;;;;12793757;23;20234;-78
2022/05/16 23:32:12;;;;;;;4.97;2.50;;;14.80;93.20;;;;;;12790532;23;20203;-78
2022/05/16 23:37:15;;;;;;;5.85;2.83;;;14.60;91.20;;;;;;12792201;23;20164;-79
2022/05/16 23:42:20;;;;;;;5.40;3.30;;;14.10;95.10;;;;;;12792650;23;20304;-78
2022/05/16 23:47:23;;;;;;;7.03;3.37;;;13.80;91.40;;;;;;12793110;23;20279;-78
2022/05/16 23:52:31;;;;;;;3.55;2.45;;;14.20;90.90;;;;;;12809503;23;20218;-78
2022/05/16 23:57:34;;;;;;;4.47;2.73;;;14.00;91.70;;;;;;12793146;23;20522;-78
